Time;durP1;ratioP1;P1;durP2;ratioP2;P2;SDS_P1;SDS_P2;PMS_P1;PMS_P2;Temp;Humidity;BMP_temperature;BMP_pressure;BME280_temperature;BME280_humidity;BME280_pressure;Samples;Min_cycle;Max_cycle;Signal;HPM_P1;HPM_P2
2022/07/06 00:01:30;;;;;;;2.73;2.10;;;23.60;46.40;24.70;101657.00;;;;5107169;28;20187;-44
2022/07/06 00:03:56;;;;;;;2.47;2.20;;;23.50;46.00;24.70;101662.00;;;;5107418;28;20183;-46
2022/07/06 00:06:22;;;;;;;3.00;2.10;;;23.40;45.70;24.60;101671.00;;;;5107301;28;20224;-47
2022/07/06 00:08:48;;;;;;;2.87;2.00;;;23.40;45.80;24.60;101666.00;;;;5107404;28;20211;-44
2022/07/06 00:11:14;;;;;;;2.73;1.90;;;23.40;45.60;24.50;101672.00;;;;5107417;28;20229;-46
2022/07/06 00:13:39;;;;;;;2.33;2.07;;;23.20;45.50;24.50;101671.00;;;;5106869;28;20688;-45
2022/07/06 00:16:05;;;;;;;3.17;2.00;;;23.30;45.50;24.50;101670.00;;;;5107188;28;20629;-46
2022/07/06 00:18:31;;;;;;;4.27;2.20;;;23.20;45.50;24.40;101684.00;;;;5107133;28;20211;-46
2022/07/06 00:20:57;;;;;;;2.73;2.00;;;23.20;45.50;24.40;101682.00;;;;5107335;28;20176;-44
2022/07/06 00:23:23;;;;;;;3.47;2.27;;;23.20;45.50;24.40;101682.00;;;;5106845;28;20276;-46
2022/07/06 00:25:49;;;;;;;3.17;2.17;;;23.20;45.50;24.40;101683.00;;;;5107019;28;20814;-48
2022/07/06 00:28:15;;;;;;;2.77;1.90;;;23.20;45.60;24.40;101681.00;;;;5106848;28;20188;-46
2022/07/06 00:30:41;;;;;;;4.27;2.20;;;23.20;45.60;24.30;101672.00;;;;5107181;28;20552;-46
2022/07/06 00:33:07;;;;;;;3.10;2.20;;;23.10;45.60;24.30;101675.00;;;;5106741;28;20181;-45
2022/07/06 00:35:32;;;;;;;3.23;2.20;;;23.10;45.70;24.30;101678.00;;;;5105666;28;20207;-45
2022/07/06 00:37:58;;;;;;;3.67;2.10;;;23.10;45.70;24.30;101674.00;;;;5106526;28;20176;-46
2022/07/06 00:40:24;;;;;;;5.07;2.27;;;23.00;45.70;24.20;101677.00;;;;5106943;28;20176;-44
2022/07/06 00:42:50;;;;;;;3.90;2.10;;;23.00;45.90;24.20;101673.00;;;;5106858;28;20541;-44
2022/07/06 00:45:16;;;;;;;4.03;2.30;;;23.00;46.00;24.20;101674.00;;;;5106915;28;20178;-45
2022/07/06 00:47:42;;;;;;;4.40;2.43;;;23.00;45.70;24.20;101682.00;;;;5106311;28;20283;-45
2022/07/06 00:50:22;;;;;;;3.20;2.30;;;23.00;45.80;24.20;101683.00;;;;5106800;28;20267;-44
2022/07/06 00:52:51;;;;;;;4.00;2.40;;;23.00;45.90;24.20;101682.00;;;;5107128;28;20153;-45
2022/07/06 00:55:28;;;;;;;3.83;2.50;;;23.00;46.00;24.10;101679.00;;;;5106283;28;20168;-46
2022/07/06 00:57:54;;;;;;;3.23;2.43;;;23.00;46.00;24.10;101683.00;;;;5105730;28;20246;-45
2022/07/06 01:00:23;;;;;;;4.97;2.63;;;22.90;45.90;24.10;101684.00;;;;5106088;28;20182;-46
2022/07/06 01:02:49;;;;;;;3.30;2.50;;;22.80;46.00;24.00;101679.00;;;;5106215;28;20172;-45
2022/07/06 01:05:15;;;;;;;2.87;2.30;;;22.80;46.20;24.00;101681.00;;;;5106040;28;20536;-46
2022/07/06 01:07:43;;;;;;;3.20;2.60;;;22.80;46.20;24.00;101685.00;;;;5105712;28;20295;-45
2022/07/06 01:10:10;;;;;;;3.33;2.50;;;22.80;46.10;24.00;101688.00;;;;5106095;28;20173;-45
2022/07/06 01:12:37;;;;;;;2.90;2.47;;;22.80;46.10;24.00;101681.00;;;;5105894;28;20164;-45
2022/07/06 01:15:05;;;;;;;3.10;2.40;;;22.80;46.10;23.90;101682.00;;;;5106139;28;20176;-46
2022/07/06 01:17:32;;;;;;;4.40;2.40;;;22.80;46.20;23.90;101677.00;;;;5105594;28;20196;-45
2022/07/06 01:19:57;;;;;;;3.70;2.43;;;22.70;46.00;23.90;101675.00;;;;5121730;28;20168;-45
2022/07/06 01:22:23;;;;;;;2.57;2.23;;;22.70;46.00;23.90;101675.00;;;;5105798;28;20599;-46
2022/07/06 01:24:49;;;;;;;2.87;2.30;;;22.70;46.10;23.90;101670.00;;;;5124324;27;20198;-45
2022/07/06 01:27:15;;;;;;;3.40;2.23;;;22.70;46.10;23.80;101677.00;;;;5109595;27;20220;-45
2022/07/06 01:29:40;;;;;;;3.30;2.50;;;22.70;46.20;23.60;101669.00;;;;5109600;28;20623;-45
2022/07/06 01:32:06;;;;;;;5.27;2.20;;;22.70;46.20;23.80;101681.00;;;;5109913;28;20168;-45
2022/07/06 01:34:32;;;;;;;2.70;2.27;;;22.70;46.20;23.80;101684.00;;;;5109757;28;20641;-45
2022/07/06 01:36:58;;;;;;;3.23;2.40;;;22.70;46.20;23.80;101675.00;;;;5109825;28;20676;-45
2022/07/06 01:39:24;;;;;;;2.90;2.40;;;22.70;46.30;23.80;101686.00;;;;5109558;28;20165;-44
2022/07/06 01:41:49;;;;;;;2.60;2.20;;;22.60;46.20;23.80;101684.00;;;;5114728;28;20198;-44
2022/07/06 01:44:15;;;;;;;3.30;2.30;;;22.70;46.20;23.80;101675.00;;;;5114726;28;20176;-44
2022/07/06 01:46:41;;;;;;;3.73;2.57;;;22.60;46.00;23.80;101685.00;;;;5113874;28;20218;-45
2022/07/06 01:49:06;;;;;;;4.30;2.40;;;22.70;46.20;23.70;101684.00;;;;5109428;27;20200;-45
2022/07/06 01:51:32;;;;;;;4.70;2.50;;;22.70;46.30;23.70;101677.00;;;;5109559;28;20257;-46
2022/07/06 01:53:58;;;;;;;3.03;2.30;;;22.60;46.40;23.70;101681.00;;;;5109366;28;20609;-45
2022/07/06 01:56:24;;;;;;;3.07;2.27;;;22.60;46.50;23.70;101674.00;;;;5125072;27;20202;-45
2022/07/06 01:58:49;;;;;;;3.60;2.40;;;22.60;46.40;23.70;101671.00;;;;5108937;28;20205;-45
2022/07/06 02:01:20;;;;;;;3.27;2.20;;;22.60;46.40;23.70;101673.00;;;;5109147;28;20620;-45
2022/07/06 02:03:46;;;;;;;3.20;2.20;;;22.50;46.30;23.70;101667.00;;;;5109588;27;20262;-44
2022/07/06 02:06:12;;;;;;;2.20;1.90;;;22.60;46.50;23.70;101670.00;;;;5109309;28;20253;-45
2022/07/06 02:08:38;;;;;;;3.03;2.23;;;22.50;46.50;23.60;101670.00;;;;5109324;28;20192;-45
2022/07/06 02:11:05;;;;;;;3.83;2.30;;;22.50;46.60;23.60;101673.00;;;;5108935;28;20229;-45
2022/07/06 02:13:30;;;;;;;3.17;2.00;;;22.50;46.60;23.60;101673.00;;;;5109195;27;20199;-45
2022/07/06 02:15:56;;;;;;;3.70;2.30;;;22.50;46.60;23.60;101681.00;;;;5109040;28;20238;-45
2022/07/06 02:18:22;;;;;;;2.87;2.30;;;22.50;46.70;23.60;101673.00;;;;5108602;28;20216;-44
2022/07/06 02:20:48;;;;;;;2.23;2.03;;;22.50;46.60;23.60;101671.00;;;;5109748;28;20204;-47
2022/07/06 02:23:13;;;;;;;3.50;2.30;;;22.50;46.50;23.60;101671.00;;;;5109402;27;20192;-45
2022/07/06 02:25:39;;;;;;;3.13;2.10;;;22.50;46.60;23.50;101684.00;;;;5108909;28;20766;-45
2022/07/06 02:28:05;;;;;;;3.80;2.17;;;22.40;46.50;23.50;101682.00;;;;5109128;28;20200;-45
2022/07/06 02:30:30;;;;;;;2.53;2.03;;;22.40;46.60;23.50;101678.00;;;;5114905;28;20255;-45
2022/07/06 02:32:56;;;;;;;2.77;2.20;;;22.40;46.50;23.50;101683.00;;;;5115979;28;20275;-45
2022/07/06 02:35:22;;;;;;;3.37;2.10;;;22.40;46.50;23.50;101679.00;;;;5107522;27;20255;-44
2022/07/06 02:37:48;;;;;;;3.03;2.10;;;22.40;46.40;23.30;101690.00;;;;5108486;28;20172;-45
2022/07/06 02:40:13;;;;;;;2.90;2.23;;;22.40;46.50;23.50;101681.00;;;;5108581;28;20267;-44
2022/07/06 02:42:39;;;;;;;3.43;2.23;;;22.40;46.60;23.50;101678.00;;;;5124711;27;20184;-44
2022/07/06 02:45:06;;;;;;;2.37;1.90;;;22.40;46.60;23.40;101674.00;;;;5108795;28;20200;-45
2022/07/06 02:47:32;;;;;;;3.20;2.10;;;22.30;46.60;23.40;101680.00;;;;5108511;28;20618;-44
2022/07/06 02:49:57;;;;;;;3.37;2.30;;;22.30;46.70;23.40;101672.00;;;;5108506;28;20620;-44
2022/07/06 02:52:23;;;;;;;2.80;1.97;;;22.30;46.60;23.40;101681.00;;;;5124746;27;20610;-44
2022/07/06 02:54:49;;;;;;;2.80;2.10;;;22.30;46.70;23.40;101682.00;;;;5108240;28;20177;-43
2022/07/06 02:57:16;;;;;;;3.63;2.17;;;22.30;47.40;23.40;101677.00;;;;5107682;28;20192;-45
2022/07/06 02:59:41;;;;;;;2.77;1.90;;;22.30;47.20;23.40;101677.00;;;;5108076;28;20610;-44
2022/07/06 03:02:07;;;;;;;3.10;2.00;;;22.20;47.00;23.30;101683.00;;;;5094549;28;20181;-45
2022/07/06 03:04:33;;;;;;;4.27;2.10;;;22.20;46.80;23.30;101689.00;;;;5067488;28;20773;-45
2022/07/06 03:06:59;;;;;;;3.37;2.37;;;22.30;46.90;23.30;101682.00;;;;5067195;28;20189;-44
2022/07/06 03:09:25;;;;;;;4.87;2.30;;;22.20;46.70;23.30;101687.00;;;;5067057;28;20292;-47
2022/07/06 03:11:51;;;;;;;3.23;2.33;;;22.20;46.90;23.30;101687.00;;;;5067442;28;20174;-45
2022/07/06 03:14:17;;;;;;;7.00;4.37;;;22.20;46.80;23.30;101688.00;;;;5067343;28;20242;-45
2022/07/06 03:16:42;;;;;;;4.70;3.50;;;22.20;46.90;23.30;101686.00;;;;5075952;28;20197;-45
2022/07/06 03:19:08;;;;;;;3.70;2.53;;;22.20;47.00;23.20;101684.00;;;;5086887;28;20176;-45
2022/07/06 03:21:34;;;;;;;3.40;2.40;;;22.10;46.90;23.20;101684.00;;;;5078474;28;20193;-46
2022/07/06 03:23:59;;;;;;;3.20;2.50;;;22.20;46.90;23.20;101687.00;;;;5068740;28;20197;-45
2022/07/06 03:26:25;;;;;;;4.87;2.60;;;22.10;46.80;23.20;101687.00;;;;5066362;28;20572;-45
2022/07/06 03:28:51;;;;;;;3.97;2.40;;;22.10;46.90;23.20;101695.00;;;;5066452;28;20292;-46
2022/07/06 03:31:17;;;;;;;3.60;2.30;;;22.10;47.00;23.20;101694.00;;;;5066165;28;20185;-45
2022/07/06 03:33:42;;;;;;;2.93;2.40;;;22.10;47.00;23.10;101693.00;;;;5066682;28;20170;-45
2022/07/06 03:36:08;;;;;;;3.53;2.23;;;22.10;47.10;23.10;101706.00;;;;5066353;28;20384;-45
2022/07/06 03:38:35;;;;;;;3.93;2.40;;;22.10;47.00;23.10;101699.00;;;;5066308;28;20202;-45
2022/07/06 03:41:01;;;;;;;3.20;2.47;;;22.10;47.00;23.10;101692.00;;;;5066010;28;20601;-46
2022/07/06 03:43:26;;;;;;;2.80;2.20;;;22.00;47.00;23.10;101698.00;;;;5065810;28;20177;-46
2022/07/06 03:45:52;;;;;;;2.33;2.00;;;22.00;47.10;23.00;101683.00;;;;5066354;28;20277;-45
2022/07/06 03:48:18;;;;;;;3.07;2.20;;;22.00;47.20;23.00;101691.00;;;;5065479;28;20193;-45
2022/07/06 03:50:44;;;;;;;3.53;2.53;;;22.10;47.30;23.00;101695.00;;;;5065922;28;20185;-46
2022/07/06 03:53:09;;;;;;;5.87;2.43;;;21.90;47.30;23.00;101694.00;;;;5065921;28;20166;-45
2022/07/06 03:55:35;;;;;;;3.57;2.40;;;21.90;47.30;23.00;101693.00;;;;5066157;28;20201;-45
2022/07/06 03:58:01;;;;;;;3.53;2.40;;;21.90;47.30;23.00;101705.00;;;;5068773;28;20177;-46
2022/07/06 04:00:26;;;;;;;2.50;2.20;;;21.90;47.30;22.90;101701.00;;;;5069037;28;20205;-44
2022/07/06 04:02:52;;;;;;;4.23;2.30;;;21.90;47.30;23.00;101699.00;;;;5067779;28;20551;-46
2022/07/06 04:05:21;;;;;;;3.10;2.30;;;21.90;47.30;22.90;101712.00;;;;5065765;28;20647;-45
2022/07/06 04:07:49;;;;;;;3.20;2.37;;;21.90;47.30;22.90;101707.00;;;;5065571;28;20670;-45
2022/07/06 04:10:16;;;;;;;3.73;2.40;;;21.90;47.30;22.90;101707.00;;;;5066125;28;20180;-45
2022/07/06 04:12:45;;;;;;;3.07;2.47;;;21.90;48.00;22.90;101705.00;;;;5066354;28;20730;-45
2022/07/06 04:15:11;;;;;;;3.37;2.23;;;21.90;47.50;22.90;101706.00;;;;5065745;28;20223;-46
2022/07/06 04:17:52;;;;;;;4.30;2.20;;;21.90;47.60;22.90;101703.00;;;;5063714;28;20215;-44
2022/07/06 04:20:18;;;;;;;3.47;2.30;;;21.80;47.50;22.80;101704.00;;;;5065759;28;20184;-46
2022/07/06 04:22:44;;;;;;;3.20;2.50;;;21.80;47.60;22.80;101710.00;;;;5065670;28;20185;-46
2022/07/06 04:25:10;;;;;;;3.63;2.30;;;21.80;47.70;22.80;101708.00;;;;5065842;28;20228;-45
2022/07/06 04:27:37;;;;;;;5.33;2.37;;;21.80;47.90;22.80;101708.00;;;;5065188;28;20237;-47
2022/07/06 04:30:04;;;;;;;3.63;2.23;;;21.80;48.00;22.80;101703.00;;;;5065733;28;20259;-45
2022/07/06 04:32:29;;;;;;;4.30;2.20;;;21.80;47.90;22.80;101707.00;;;;5065934;28;20580;-45
2022/07/06 04:34:55;;;;;;;5.30;2.27;;;21.80;47.80;22.80;101704.00;;;;5065675;28;20177;-45
2022/07/06 04:37:21;;;;;;;3.07;2.17;;;21.80;47.90;22.70;101705.00;;;;5064995;28;20193;-45
2022/07/06 04:39:47;;;;;;;4.67;2.50;;;21.80;47.90;22.70;101715.00;;;;5065928;28;20174;-46
2022/07/06 04:42:12;;;;;;;3.00;2.23;;;21.80;47.70;22.70;101706.00;;;;5065912;28;20208;-47
2022/07/06 04:44:38;;;;;;;3.53;2.20;;;21.80;47.80;22.70;101715.00;;;;5065724;28;20638;-45
2022/07/06 04:47:04;;;;;;;2.50;1.97;;;21.70;47.90;22.70;101719.00;;;;5065156;28;20198;-46
2022/07/06 04:49:29;;;;;;;3.67;2.30;;;21.70;47.70;22.70;101715.00;;;;5064962;28;20230;-45
2022/07/06 04:51:55;;;;;;;2.87;2.30;;;21.70;47.60;22.70;101706.00;;;;5065763;28;20174;-47
2022/07/06 04:54:21;;;;;;;2.43;2.03;;;21.70;47.70;22.70;101711.00;;;;5065627;28;20626;-46
2022/07/06 04:56:47;;;;;;;3.13;2.20;;;21.70;47.80;22.70;101707.00;;;;5065408;28;20189;-46
2022/07/06 04:59:13;;;;;;;2.40;2.20;;;21.70;48.40;22.70;101714.00;;;;5066405;28;20178;-45
2022/07/06 05:01:40;;;;;;;3.33;2.30;;;21.70;48.10;22.60;101719.00;;;;5069423;28;20223;-45
2022/07/06 05:04:06;;;;;;;2.80;2.50;;;21.70;47.90;22.60;101719.00;;;;5069405;28;20256;-45
2022/07/06 05:06:32;;;;;;;2.87;2.30;;;21.70;48.10;22.60;101732.00;;;;5069333;28;20658;-47
2022/07/06 05:08:59;;;;;;;3.73;2.40;;;21.70;47.80;22.60;101721.00;;;;5068803;28;20277;-46
2022/07/06 05:11:28;;;;;;;4.40;2.40;;;21.70;47.80;22.60;101718.00;;;;5069711;28;20180;-45
2022/07/06 05:13:54;;;;;;;3.17;2.80;;;21.70;47.80;22.60;101726.00;;;;5069340;28;20173;-46
2022/07/06 05:16:20;;;;;;;2.87;2.40;;;21.70;48.10;22.60;101722.00;;;;5069200;28;20198;-46
2022/07/06 05:18:46;;;;;;;3.00;2.50;;;21.70;48.00;22.60;101727.00;;;;5069586;28;20176;-45
2022/07/06 05:21:12;;;;;;;3.90;2.50;;;21.70;47.90;22.60;101720.00;;;;5069216;28;20635;-46
2022/07/06 05:23:38;;;;;;;3.20;2.50;;;21.70;48.10;22.60;101725.00;;;;5069262;28;20276;-45
2022/07/06 05:26:03;;;;;;;3.00;2.30;;;21.70;48.00;22.50;101736.00;;;;5069109;28;20221;-46
2022/07/06 05:28:29;;;;;;;4.27;2.90;;;21.60;48.00;22.50;101722.00;;;;5069252;28;20210;-45
2022/07/06 05:30:55;;;;;;;3.20;2.40;;;21.60;48.30;22.50;101725.00;;;;5077079;28;20162;-45
2022/07/06 05:33:21;;;;;;;3.53;2.90;;;21.60;48.40;22.50;101720.00;;;;5080148;28;20174;-45
2022/07/06 05:35:46;;;;;;;2.80;2.60;;;21.60;48.60;22.50;101723.00;;;;5068939;28;20701;-44
2022/07/06 05:38:12;;;;;;;2.93;2.40;;;21.60;48.50;22.50;101729.00;;;;5068388;28;20162;-45
2022/07/06 05:40:38;;;;;;;3.53;2.83;;;21.60;48.30;22.50;101723.00;;;;5068969;28;20181;-45
2022/07/06 05:43:04;;;;;;;3.87;2.57;;;21.50;48.60;22.50;101728.00;;;;5068445;28;20617;-46
2022/07/06 05:45:29;;;;;;;3.03;2.63;;;21.50;48.50;22.40;101728.00;;;;5068623;28;20200;-45
2022/07/06 05:50:40;;;;;;;3.43;2.70;;;21.50;48.30;22.40;101724.00;;;;5068864;28;20213;-44
2022/07/06 05:53:06;;;;;;;5.13;3.20;;;21.50;48.90;22.40;101720.00;;;;5068901;28;20177;-47
2022/07/06 05:55:31;;;;;;;5.37;3.60;;;21.50;48.80;22.40;101726.00;;;;5081548;28;20168;-47
2022/07/06 05:57:57;;;;;;;6.23;3.60;;;21.50;49.20;22.40;101730.00;;;;5076519;28;20166;-45
2022/07/06 06:00:24;;;;;;;4.73;2.57;;;21.40;49.20;22.40;101733.00;;;;5078056;28;20660;-44
2022/07/06 06:02:49;;;;;;;3.53;2.77;;;21.40;49.00;22.40;101729.00;;;;5070966;28;20176;-45
2022/07/06 06:05:16;;;;;;;4.77;3.10;;;21.40;49.20;22.40;101734.00;;;;5068113;28;20166;-45
2022/07/06 06:07:41;;;;;;;4.80;2.67;;;21.40;49.20;22.40;101738.00;;;;5067622;28;20204;-45
2022/07/06 06:10:09;;;;;;;4.77;3.00;;;21.40;49.10;22.40;101736.00;;;;5072487;28;20170;-47
2022/07/06 06:12:35;;;;;;;2.90;2.60;;;21.40;49.40;22.40;101750.00;;;;5075348;28;20165;-45
2022/07/06 06:15:01;;;;;;;7.93;3.43;;;21.40;49.40;22.40;101747.00;;;;5075001;28;20199;-46
2022/07/06 06:17:27;;;;;;;3.97;3.00;;;21.40;50.00;22.30;101737.00;;;;5069313;28;20776;-45
2022/07/06 06:19:53;;;;;;;4.23;2.97;;;21.30;50.30;22.30;101754.00;;;;5068272;28;20194;-46
2022/07/06 06:22:18;;;;;;;4.60;2.80;;;21.20;50.10;22.30;101743.00;;;;5067860;28;20239;-44
2022/07/06 06:24:44;;;;;;;4.53;3.10;;;21.30;50.10;22.30;101756.00;;;;5067857;28;20231;-45
2022/07/06 06:27:10;;;;;;;5.90;3.20;;;21.30;50.70;22.30;101743.00;;;;5073735;28;20209;-45
2022/07/06 06:29:36;;;;;;;3.27;2.67;;;21.20;50.60;22.20;101751.00;;;;5077179;28;20221;-45
2022/07/06 06:32:02;;;;;;;2.93;2.40;;;21.20;50.20;22.20;101752.00;;;;5078404;28;20180;-46
2022/07/06 06:34:28;;;;;;;5.13;2.50;;;21.20;49.90;22.20;101747.00;;;;5076460;28;20170;-46
2022/07/06 06:36:54;;;;;;;4.13;2.60;;;21.30;49.80;22.20;101751.00;;;;5077584;28;20188;-46
2022/07/06 06:39:19;;;;;;;4.80;3.00;;;21.30;50.10;22.20;101757.00;;;;5077953;28;20683;-45
2022/07/06 06:41:45;;;;;;;3.33;2.60;;;21.20;50.80;22.20;101754.00;;;;5076623;28;20598;-46
2022/07/06 06:44:11;;;;;;;4.37;2.60;;;21.10;50.80;22.10;101755.00;;;;5077926;28;20203;-46
2022/07/06 06:46:38;;;;;;;3.80;2.70;;;21.10;50.70;22.10;101751.00;;;;5082932;28;20189;-46
2022/07/06 06:49:03;;;;;;;4.30;2.50;;;21.10;51.10;22.10;101751.00;;;;5075630;28;20196;-46
2022/07/06 06:51:29;;;;;;;3.23;2.33;;;21.10;50.80;22.10;101757.00;;;;5087603;28;20642;-45
2022/07/06 06:53:55;;;;;;;3.77;2.30;;;21.10;51.00;22.10;101762.00;;;;5087534;28;20171;-44
2022/07/06 06:56:21;;;;;;;3.80;2.27;;;21.10;50.60;22.10;101757.00;;;;5087402;28;20192;-45
2022/07/06 06:58:46;;;;;;;3.97;2.20;;;21.10;50.60;22.10;101757.00;;;;5087049;28;20172;-45
2022/07/06 07:01:12;;;;;;;4.57;2.60;;;21.10;50.60;22.10;101761.00;;;;5087773;28;20263;-45
2022/07/06 07:03:38;;;;;;;4.07;2.50;;;21.10;50.70;22.10;101759.00;;;;5087266;28;20232;-45
2022/07/06 07:06:04;;;;;;;4.30;2.20;;;21.10;51.00;22.10;101751.00;;;;5087335;28;20197;-44
2022/07/06 07:08:29;;;;;;;3.77;2.57;;;21.10;50.70;22.10;101759.00;;;;5086728;28;20278;-44
2022/07/06 07:10:55;;;;;;;3.57;2.37;;;21.10;50.80;22.00;101765.00;;;;5087262;28;20165;-46
2022/07/06 07:13:21;;;;;;;2.87;1.90;;;21.10;51.10;22.00;101770.00;;;;5086986;28;20570;-46
2022/07/06 07:15:46;;;;;;;4.07;2.10;;;21.10;51.10;22.00;101763.00;;;;5086896;28;20188;-45
2022/07/06 07:18:12;;;;;;;3.10;1.93;;;21.10;51.10;22.00;101766.00;;;;5086478;28;20178;-46
2022/07/06 07:20:38;;;;;;;3.03;2.10;;;21.10;51.00;22.00;101766.00;;;;5102912;28;20586;-46
2022/07/06 07:23:04;;;;;;;2.63;1.80;;;21.10;51.00;22.00;101759.00;;;;5086725;28;20669;-45
2022/07/06 07:25:29;;;;;;;2.37;1.77;;;21.10;50.80;22.00;101768.00;;;;5086915;28;20389;-46
2022/07/06 07:27:55;;;;;;;2.60;1.70;;;21.10;50.50;22.00;101765.00;;;;5085605;28;20261;-46
2022/07/06 07:30:21;;;;;;;2.63;1.80;;;21.10;50.50;22.00;101775.00;;;;5086343;28;20739;-44
2022/07/06 07:32:47;;;;;;;1.97;1.73;;;21.10;50.40;22.00;101764.00;;;;5086235;28;20164;-45
2022/07/06 07:35:12;;;;;;;2.30;1.70;;;21.10;50.60;22.00;101768.00;;;;5087016;28;20161;-45
2022/07/06 07:37:38;;;;;;;1.70;1.60;;;21.10;50.50;22.00;101771.00;;;;5086590;28;20710;-53
2022/07/06 07:40:05;;;;;;;3.10;1.90;;;21.10;50.50;22.00;101767.00;;;;5087349;28;20256;-45
2022/07/06 07:42:32;;;;;;;3.67;1.80;;;21.10;50.50;21.70;101794.00;;;;5079993;28;20177;-47
2022/07/06 07:44:58;;;;;;;2.83;1.60;;;21.10;50.30;21.90;101763.00;;;;5004942;28;20226;-45
2022/07/06 07:47:24;;;;;;;3.83;1.70;;;21.10;50.50;21.90;101762.00;;;;5085510;28;20191;-44
2022/07/06 07:49:50;;;;;;;3.73;1.83;;;21.10;50.50;21.90;101770.00;;;;5086315;28;20176;-45
2022/07/06 07:52:16;;;;;;;2.33;1.50;;;21.10;50.80;21.90;101775.00;;;;5086206;28;20310;-46
2022/07/06 07:54:42;;;;;;;3.10;1.80;;;21.10;50.80;21.90;101768.00;;;;5086192;28;20640;-45
2022/07/06 07:57:07;;;;;;;3.40;1.70;;;21.10;50.90;21.90;101772.00;;;;5086032;28;20211;-46
2022/07/06 07:59:33;;;;;;;3.37;1.70;;;21.00;50.60;21.90;101772.00;;;;5085899;28;20179;-47
2022/07/06 08:01:59;;;;;;;3.83;1.80;;;21.10;50.80;21.90;101770.00;;;;5085838;28;20181;-47
2022/07/06 08:04:25;;;;;;;1.90;1.70;;;21.00;50.80;21.90;101770.00;;;;5086172;28;20172;-46
2022/07/06 08:06:51;;;;;;;3.50;1.93;;;21.00;51.00;21.90;101773.00;;;;5086071;28;20857;-45
2022/07/06 08:09:17;;;;;;;3.33;2.03;;;21.00;50.60;21.90;101769.00;;;;5086106;28;20697;-45
2022/07/06 08:11:43;;;;;;;2.67;1.93;;;21.00;50.60;21.90;101769.00;;;;5085941;28;20669;-45
2022/07/06 08:14:09;;;;;;;2.87;2.00;;;21.00;50.50;21.90;101768.00;;;;5085926;28;20233;-44
2022/07/06 08:16:35;;;;;;;2.60;1.83;;;21.00;50.50;21.90;101776.00;;;;5086174;28;20192;-47
2022/07/06 08:19:01;;;;;;;2.60;1.70;;;21.00;50.40;21.90;101771.00;;;;5086082;28;20554;-46
2022/07/06 08:21:26;;;;;;;1.73;1.50;;;21.00;50.40;21.90;101768.00;;;;5088375;28;20207;-44
2022/07/06 08:23:53;;;;;;;2.77;1.60;;;21.10;50.40;21.90;101778.00;;;;5088793;28;20182;-43
2022/07/06 08:26:19;;;;;;;2.70;1.73;;;21.10;50.30;21.90;101768.00;;;;5089680;28;20184;-45
2022/07/06 08:28:45;;;;;;;3.93;1.77;;;21.00;50.10;21.90;101766.00;;;;5090745;28;20196;-46
2022/07/06 08:31:11;;;;;;;1.80;1.57;;;21.10;50.10;21.90;101762.00;;;;5090808;28;20247;-45
2022/07/06 08:33:36;;;;;;;2.50;2.30;;;21.00;50.10;21.90;101766.00;;;;5090954;28;20172;-45
2022/07/06 08:36:02;;;;;;;3.10;2.00;;;21.00;50.00;21.90;101761.00;;;;5076586;28;20194;-46
2022/07/06 08:38:28;;;;;;;2.00;1.77;;;21.10;50.00;22.00;101762.00;;;;5068688;28;20175;-46
2022/07/06 08:40:54;;;;;;;2.47;1.70;;;21.10;50.00;22.00;101755.00;;;;5068430;28;20540;-48
2022/07/06 08:43:20;;;;;;;2.43;1.60;;;21.00;49.70;22.00;101759.00;;;;4910457;28;20214;-46
2022/07/06 08:45:46;;;;;;;4.47;1.70;;;21.00;49.50;22.00;101759.00;;;;5084582;28;20192;-45
2022/07/06 08:48:11;;;;;;;3.47;1.50;;;21.00;49.50;22.00;101765.00;;;;5084149;28;20231;-45
2022/07/06 08:50:37;;;;;;;2.03;1.57;;;21.00;49.60;22.00;101763.00;;;;5084281;28;20189;-45
2022/07/06 08:53:04;;;;;;;2.23;1.60;;;21.00;49.40;21.90;101756.00;;;;5079253;28;20624;-45
2022/07/06 08:55:30;;;;;;;3.20;1.70;;;21.00;49.50;21.90;101762.00;;;;5074032;28;20199;-45
2022/07/06 08:57:56;;;;;;;1.60;1.40;;;21.00;49.10;21.90;101753.00;;;;5049590;28;20215;-45
2022/07/06 09:00:24;;;;;;;2.47;1.50;;;20.90;49.00;21.90;101759.00;;;;5065190;28;20239;-45
2022/07/06 09:02:50;;;;;;;2.07;1.63;;;20.90;49.20;21.90;101761.00;;;;5072337;28;20180;-46
2022/07/06 09:05:17;;;;;;;2.00;1.50;;;20.90;49.20;21.80;101757.00;;;;5085733;28;20173;-46
2022/07/06 09:07:45;;;;;;;3.17;1.70;;;21.00;49.30;21.90;101741.00;;;;5084961;28;20282;-46
2022/07/06 09:10:11;;;;;;;4.10;1.30;;;21.00;49.40;21.80;101745.00;;;;5100954;28;20719;-45
2022/07/06 09:12:37;;;;;;;3.40;1.70;;;21.00;49.40;21.90;101703.00;;;;5101394;28;20189;-45
2022/07/06 09:15:03;;;;;;;3.33;1.40;;;21.00;49.40;21.90;101755.00;;;;5085255;28;20614;-46
2022/07/06 09:17:29;;;;;;;3.20;1.40;;;21.00;49.40;21.90;101762.00;;;;5085863;28;20200;-45
2022/07/06 09:19:55;;;;;;;2.23;1.50;;;21.10;49.50;21.90;101754.00;;;;5085130;28;20553;-45
2022/07/06 09:22:29;;;;;;;4.00;1.87;;;21.10;49.40;21.90;101756.00;;;;5085478;28;20178;-45
2022/07/06 09:25:05;;;;;;;2.73;1.47;;;21.10;49.10;21.90;101753.00;;;;5085752;28;20849;-45
2022/07/06 09:27:32;;;;;;;2.97;1.40;;;21.10;48.90;21.90;101750.00;;;;5100286;28;20240;-46
2022/07/06 09:30:01;;;;;;;2.90;1.50;;;21.10;49.10;21.90;101750.00;;;;5100972;28;20496;-45
2022/07/06 09:32:27;;;;;;;2.60;1.50;;;21.10;49.10;22.00;101752.00;;;;5085189;28;20180;-47
2022/07/06 09:34:54;;;;;;;5.90;1.50;;;21.10;49.40;22.00;101752.00;;;;5070305;28;20242;-44
2022/07/06 09:37:19;;;;;;;4.00;1.43;;;21.20;49.50;22.00;101756.00;;;;5070421;28;20590;-43
2022/07/06 09:39:45;;;;;;;2.40;1.57;;;21.20;49.70;22.00;101760.00;;;;5047096;28;20172;-43
2022/07/06 09:42:11;;;;;;;3.20;1.60;;;21.20;49.70;22.10;101757.00;;;;5065343;28;20347;-44
2022/07/06 09:44:41;;;;;;;3.57;1.43;;;21.30;49.60;22.10;101752.00;;;;5065676;28;20657;-42
2022/07/06 09:47:09;;;;;;;3.20;1.57;;;21.30;49.60;22.10;101754.00;;;;5068659;28;20192;-44
2022/07/06 09:49:36;;;;;;;2.60;1.40;;;21.30;49.50;22.10;101759.00;;;;5073566;28;20285;-44
2022/07/06 09:52:05;;;;;;;2.53;1.47;;;21.30;49.40;22.20;101751.00;;;;5088907;28;20265;-44
2022/07/06 09:54:32;;;;;;;2.43;1.20;;;21.30;49.10;22.20;101743.00;;;;5089275;28;20489;-43
2022/07/06 09:56:57;;;;;;;2.93;1.60;;;21.30;48.00;22.20;101752.00;;;;5107874;28;20188;-43
2022/07/06 09:59:30;;;;;;;1.97;1.30;;;21.30;47.40;22.20;101739.00;;;;5101396;28;20156;-42
2022/07/06 10:01:58;;;;;;;1.37;1.13;;;21.30;47.20;22.20;101745.00;;;;5089125;28;20247;-44
2022/07/06 10:04:25;;;;;;;2.00;1.40;;;21.30;47.70;22.20;101731.00;;;;5089151;28;20249;-43
2022/07/06 10:06:51;;;;;;;1.23;1.13;;;21.30;47.70;22.30;101740.00;;;;5087137;28;20216;-43
2022/07/06 10:09:18;;;;;;;5.07;1.63;;;21.40;48.10;22.30;101677.00;;;;5087580;28;20642;-43
2022/07/06 10:11:51;;;;;;;20.67;6.90;;;21.40;49.10;22.30;101739.00;;;;5088082;28;20197;-44
2022/07/06 10:14:37;;;;;;;20.07;8.13;;;21.50;49.60;22.40;101753.00;;;;5088641;28;20176;-43
2022/07/06 10:17:04;;;;;;;39.23;11.30;;;21.60;50.00;22.40;101741.00;;;;5088292;28;20199;-43
2022/07/06 10:19:30;;;;;;;42.83;13.10;;;21.60;50.00;22.40;101755.00;;;;5088181;28;20184;-44
2022/07/06 10:21:58;;;;;;;52.57;14.50;;;21.70;50.10;22.40;101749.00;;;;5087983;28;20168;-44
2022/07/06 10:24:24;;;;;;;44.07;13.90;;;21.70;50.00;22.40;101737.00;;;;5089099;28;20679;-43
2022/07/06 10:26:50;;;;;;;47.80;13.87;;;21.70;49.90;22.40;101742.00;;;;5088018;28;20288;-43
2022/07/06 10:29:16;;;;;;;46.60;14.90;;;21.70;50.00;22.50;101747.00;;;;5086939;28;20232;-43
2022/07/06 10:31:45;;;;;;;51.00;15.23;;;21.70;50.00;22.50;101747.00;;;;5087761;28;20786;-43
2022/07/06 10:34:13;;;;;;;44.27;14.70;;;21.80;50.50;22.50;101732.00;;;;5088332;28;20483;-44
2022/07/06 10:36:41;;;;;;;42.97;13.43;;;21.80;50.40;22.50;101749.00;;;;5086530;28;20288;-44
2022/07/06 10:41:51;;;;;;;38.17;13.33;;;21.90;50.40;22.60;101741.00;;;;5104817;28;20192;-43
2022/07/06 10:44:19;;;;;;;37.77;12.50;;;21.80;50.40;22.60;101738.00;;;;5102887;28;20173;-43
2022/07/06 10:46:55;;;;;;;33.70;11.70;;;21.90;50.50;22.70;101732.00;;;;4857532;28;20196;-43
2022/07/06 10:49:22;;;;;;;37.10;12.70;;;21.80;50.30;22.80;101735.00;;;;5087815;28;20356;-43